createdAt,value
2016-02-12T00:01:32.039Z,19.09
2016-02-12T00:02:10.570Z,19.16
2016-02-12T00:02:57.745Z,19.09
2016-02-12T00:04:16.967Z,19.17
2016-02-12T00:05:04.079Z,19.16
2016-02-12T00:06:23.506Z,19.19
2016-02-12T00:07:20.084Z,19.05
2016-02-12T00:08:20.150Z,19.11
2016-02-12T00:09:32.874Z,19.09
2016-02-12T00:10:33.009Z,19.16
2016-02-12T00:11:20.215Z,19.09
2016-02-12T00:12:32.955Z,19.08
2016-02-12T00:13:20.268Z,19.07
2016-02-12T00:14:39.492Z,19.15
2016-02-12T00:15:23.429Z,19.05
2016-02-12T00:16:49.060Z,19.07
2016-02-12T00:17:30.015Z,19.11
2016-02-12T00:19:23.471Z,19.12
2016-02-12T00:20:23.647Z,19.09
2016-02-12T00:21:42.746Z,19.15
2016-02-12T00:22:23.652Z,19.11
2016-02-12T00:23:23.561Z,19.12
2016-02-12T00:24:29.857Z,19.07
2016-02-12T00:25:23.591Z,19.11
2016-02-12T00:26:36.338Z,19.12
2016-02-12T00:27:23.635Z,19.09
2016-02-12T00:28:23.653Z,19.09
2016-02-12T00:29:29.946Z,19.11
2016-02-12T00:30:25.102Z,19.07
2016-02-12T00:31:23.725Z,19.09
2016-02-12T00:32:42.941Z,19.12
2016-02-12T00:33:23.785Z,19.08
2016-02-12T00:34:49.444Z,18.98
2016-02-12T00:35:30.070Z,19.08
2016-02-12T00:37:38.998Z,19.08
2016-02-12T00:38:39.094Z,19
2016-02-12T00:39:39.079Z,19.09
2016-02-12T00:40:51.816Z,19.08
2016-02-12T00:41:39.724Z,18.98
2016-02-12T00:43:04.818Z,18.98
2016-02-12T00:43:51.695Z,18.98
2016-02-12T00:44:48.713Z,19.07
2016-02-12T00:45:51.747Z,18.97
2016-02-12T00:46:50.171Z,18.97
2016-02-12T00:47:55.079Z,18.98
2016-02-12T00:49:01.551Z,19.04
2016-02-12T00:49:48.835Z,18.96
2016-02-12T00:51:08.088Z,19.01
2016-02-12T00:52:11.169Z,18.97
2016-02-12T00:55:14.303Z,18.98
2016-02-12T00:56:14.352Z,18.97
2016-02-12T00:57:14.355Z,19
2016-02-12T00:58:20.842Z,18.96
2016-02-12T00:59:14.611Z,18.98
2016-02-12T01:00:33.663Z,19.04
2016-02-12T01:01:20.726Z,19.07
2016-02-12T01:02:45.818Z,18.98
2016-02-12T01:03:32.743Z,18.98
2016-02-12T01:04:49.010Z,19
2016-02-12T01:05:48.966Z,18.98
2016-02-12T01:06:58.532Z,19.04
2016-02-12T01:07:32.893Z,19.09
2016-02-12T01:09:48.087Z,19.01
2016-02-12T01:10:48.137Z,18.96
2016-02-12T01:11:48.157Z,18.98
2016-02-12T01:13:00.913Z,18.96
2016-02-12T01:14:00.932Z,19.01
2016-02-12T01:15:07.435Z,19.11
2016-02-12T01:16:07.468Z,18.97
2016-02-12T01:17:10.737Z,19.01
2016-02-12T01:18:10.567Z,18.98
2016-02-12T01:18:51.382Z,18.96
2016-02-12T01:19:51.417Z,19.05
2016-02-12T01:21:04.076Z,18.98
2016-02-12T01:22:27.172Z,18.98
2016-02-12T01:23:01.582Z,18.96
2016-02-12T01:24:32.913Z,18.98
2016-02-12T01:25:11.743Z,19.04
2016-02-12T01:26:11.871Z,18.94
2016-02-12T01:27:27.717Z,19
2016-02-12T01:28:15.032Z,19
2016-02-12T01:29:40.707Z,19
2016-02-12T01:30:50.228Z,18.96
2016-02-12T01:31:37.338Z,19.04
2016-02-12T01:32:24.810Z,19.07
2016-02-12T01:33:43.875Z,18.96
2016-02-12T01:34:27.768Z,19
2016-02-12T01:35:47.006Z,19
2016-02-12T01:36:27.806Z,18.98
2016-02-12T01:37:27.855Z,18.98
2016-02-12T01:38:34.108Z,18.97
2016-02-12T01:39:27.908Z,18.97
2016-02-12T01:40:40.789Z,19.01
2016-02-12T01:41:27.947Z,19
2016-02-12T01:42:27.981Z,19.01
2016-02-12T01:43:28.034Z,19.05
2016-02-12T01:44:28.036Z,19
2016-02-12T01:45:40.789Z,19.09
2016-02-12T01:46:29.480Z,18.98
2016-02-12T01:47:40.842Z,19.05
2016-02-12T01:48:28.767Z,19.01
2016-02-12T01:49:40.895Z,18.96
2016-02-12T01:50:40.944Z,19
2016-02-12T01:51:40.962Z,18.98
2016-02-12T01:52:28.247Z,18.98
2016-02-12T01:53:28.311Z,18.96
2016-02-12T01:54:47.517Z,18.97
2016-02-12T01:55:35.192Z,18.98
2016-02-12T01:57:46.604Z,19.01
2016-02-12T01:59:52.831Z,18.97
2016-02-12T02:00:49.816Z,19
2016-02-12T02:02:02.571Z,18.98
2016-02-12T02:02:49.867Z,19.04
2016-02-12T02:03:49.886Z,19
2016-02-12T02:04:49.935Z,19.01
2016-02-12T02:06:04.098Z,18.97
2016-02-12T02:06:49.989Z,19.07
2016-02-12T02:07:50.023Z,19
2016-02-12T02:08:50.026Z,19.05
2016-02-12T02:09:56.343Z,18.88
2016-02-12T02:10:50.109Z,18.97
2016-02-12T02:12:09.317Z,18.98
2016-02-12T02:12:56.227Z,19.07
2016-02-12T02:14:18.903Z,18.98
2016-02-12T02:15:02.781Z,18.97
2016-02-12T02:16:02.799Z,19
2016-02-12T02:17:02.833Z,18.92
2016-02-12T02:18:02.945Z,18.97
2016-02-12T02:19:09.166Z,18.97
2016-02-12T02:20:02.951Z,18.94
2016-02-12T02:21:02.938Z,19.01
2016-02-12T02:22:03.034Z,18.92
2016-02-12T02:23:03.005Z,18.98
2016-02-12T02:24:03.040Z,18.85
2016-02-12T02:25:09.323Z,19.01
2016-02-12T02:26:04.482Z,18.96
2016-02-12T02:27:15.860Z,18.85
2016-02-12T02:28:17.268Z,18.97
2016-02-12T02:29:28.834Z,18.89
2016-02-12T02:30:12.743Z,18.91
2016-02-12T02:31:12.746Z,18.92
2016-02-12T02:32:12.795Z,18.88
2016-02-12T02:33:19.111Z,18.96
2016-02-12T02:34:19.098Z,18.97
2016-02-12T02:35:12.897Z,19
2016-02-12T02:36:25.619Z,18.88
2016-02-12T02:37:12.965Z,18.85
2016-02-12T02:38:38.624Z,18.96
2016-02-12T02:39:23.095Z,18.91
2016-02-12T02:40:48.787Z,18.91
2016-02-12T02:41:29.414Z,18.91
2016-02-12T02:42:54.486Z,19.05
2016-02-12T02:43:38.346Z,18.94
2016-02-12T02:45:04.069Z,18.94
2016-02-12T02:45:47.960Z,18.86
2016-02-12T02:46:47.979Z,19
2016-02-12T02:47:54.280Z,18.94
2016-02-12T02:49:07.223Z,18.91
2016-02-12T02:49:51.114Z,18.97
2016-02-12T02:51:16.869Z,18.91
2016-02-12T02:51:57.435Z,18.97
2016-02-12T02:54:03.987Z,18.96
2016-02-12T02:54:51.237Z,18.88
2016-02-12T02:55:51.272Z,18.88
2016-02-12T02:56:51.290Z,18.92
2016-02-12T02:58:04.060Z,18.83
2016-02-12T02:59:04.079Z,18.89
2016-02-12T02:59:51.393Z,19.05
2016-02-12T03:01:04.148Z,18.86
2016-02-12T03:01:51.477Z,18.98
2016-02-12T03:02:51.448Z,18.85
2016-02-12T03:03:52.091Z,18.94
2016-02-12T03:05:04.238Z,19.01
2016-02-12T03:06:04.287Z,18.85
2016-02-12T03:06:51.584Z,18.82
2016-02-12T03:07:51.602Z,18.98
2016-02-12T03:08:51.607Z,18.89
2016-02-12T03:09:57.924Z,18.89
2016-02-12T03:10:51.721Z,18.88
2016-02-12T03:12:04.435Z,18.91
2016-02-12T03:13:04.469Z,18.96
2016-02-12T03:13:51.765Z,18.96
2016-02-12T03:15:17.460Z,18.98
2016-02-12T03:16:01.353Z,18.83
2016-02-12T03:17:20.591Z,18.94
2016-02-12T03:18:17.188Z,18.92
2016-02-12T03:19:17.206Z,18.97
2016-02-12T03:20:17.255Z,18.82
2016-02-12T03:21:17.258Z,18.96
2016-02-12T03:22:17.324Z,18.97
2016-02-12T03:23:18.763Z,19.01
2016-02-12T03:24:30.079Z,18.98
2016-02-12T03:25:18.175Z,18.92
2016-02-12T03:26:17.396Z,18.97
2016-02-12T03:27:30.166Z,18.97
2016-02-12T03:28:17.449Z,18.91
2016-02-12T03:29:17.482Z,18.86
2016-02-12T03:30:17.516Z,18.88
2016-02-12T03:31:17.551Z,18.88
2016-02-12T03:32:30.303Z,18.86
2016-02-12T03:33:36.790Z,18.88
2016-02-12T03:34:36.857Z,18.91
2016-02-12T03:35:17.688Z,18.88
2016-02-12T03:36:36.893Z,18.88
2016-02-12T03:37:30.428Z,18.88
2016-02-12T03:38:43.994Z,18.89
2016-02-12T03:39:17.761Z,18.94
2016-02-12T03:40:44.874Z,18.91
2016-02-12T03:41:17.798Z,18.89
2016-02-12T03:42:17.832Z,18.89
2016-02-12T03:43:18.074Z,18.97
2016-02-12T03:44:30.623Z,18.91
2016-02-12T03:45:24.391Z,18.92
2016-02-12T03:46:17.956Z,18.88
2016-02-12T03:47:30.709Z,18.92
2016-02-12T03:48:49.305Z,18.97
2016-02-12T03:49:18.011Z,18.88
2016-02-12T03:50:49.357Z,18.92
2016-02-12T03:51:18.079Z,18.85
2016-02-12T03:52:18.113Z,18.92
2016-02-12T03:53:50.850Z,18.88
2016-02-12T03:54:25.634Z,18.86
2016-02-12T03:55:22.684Z,18.91
2016-02-12T03:56:22.671Z,18.88
2016-02-12T03:57:22.705Z,18.88
2016-02-12T03:58:22.723Z,18.92
2016-02-12T03:59:35.476Z,18.92
2016-02-12T04:00:23.369Z,18.91
2016-02-12T04:01:48.513Z,18.92
2016-02-12T04:02:32.374Z,18.85
2016-02-12T04:03:51.612Z,18.92
2016-02-12T04:04:38.506Z,18.89
2016-02-12T04:06:43.027Z,18.96
2016-02-12T04:07:43.045Z,18.94
2016-02-12T04:08:55.831Z,18.91
2016-02-12T04:09:49.363Z,18.92
2016-02-12T04:11:02.322Z,18.83
2016-02-12T04:11:55.939Z,18.91
2016-02-12T04:12:43.173Z,18.88
2016-02-12T04:14:08.882Z,18.86
2016-02-12T04:14:49.523Z,18.92
2016-02-12T04:16:15.184Z,18.89
2016-02-12T04:16:43.309Z,18.86
2016-02-12T04:18:27.362Z,18.89
2016-02-12T04:18:43.347Z,18.89
2016-02-12T04:19:43.365Z,18.92
2016-02-12T04:20:44.823Z,18.94
2016-02-12T04:21:56.172Z,18.94
2016-02-12T04:22:56.206Z,18.94
2016-02-12T04:24:02.693Z,18.82
2016-02-12T04:24:46.568Z,18.79
2016-02-12T04:26:05.808Z,18.81
2016-02-12T04:26:49.683Z,18.79
2016-02-12T04:28:15.391Z,18.82
2016-02-12T04:29:24.926Z,18.91
2016-02-12T04:30:12.915Z,18.92
2016-02-12T04:32:35.044Z,18.92
2016-02-12T04:33:09.407Z,18.82
2016-02-12T04:34:10.862Z,18.82
2016-02-12T04:35:15.725Z,18.81
2016-02-12T04:36:28.696Z,18.81
2016-02-12T04:37:09.574Z,18.83
2016-02-12T04:38:35.218Z,18.73
2016-02-12T04:39:09.674Z,18.79
2016-02-12T04:40:35.257Z,18.74
2016-02-12T04:41:09.619Z,18.73
2016-02-12T04:42:09.653Z,18.82
2016-02-12T04:43:19.343Z,18.79
2016-02-12T04:44:19.206Z,18.82
2016-02-12T04:45:25.505Z,18.92
2016-02-12T04:46:32.010Z,18.76
2016-02-12T04:47:32.043Z,18.91
2016-02-12T04:48:38.547Z,18.81
2016-02-12T04:49:41.611Z,18.82
2016-02-12T04:50:22.536Z,18.82
2016-02-12T04:51:53.774Z,18.86
2016-02-12T04:52:22.495Z,18.92
2016-02-12T04:53:22.529Z,18.81
2016-02-12T04:54:28.797Z,18.94
2016-02-12T04:55:28.846Z,18.89
2016-02-12T04:56:41.803Z,18.81
2016-02-12T04:57:57.667Z,18.88
2016-02-12T04:58:51.385Z,18.88
2016-02-12T04:59:25.748Z,18.86
2016-02-12T05:00:57.129Z,18.83
2016-02-12T05:01:35.441Z,18.89
2016-02-12T05:02:35.491Z,18.89
2016-02-12T05:03:35.509Z,18.89
2016-02-12T05:05:50.687Z,18.89
2016-02-12T05:06:50.737Z,18.94
2016-02-12T05:08:22.054Z,18.97
2016-02-12T05:09:05.948Z,18.86
2016-02-12T05:10:25.201Z,18.83
2016-02-12T05:11:12.468Z,18.86
2016-02-12T05:12:25.446Z,18.78
2016-02-12T05:13:18.807Z,18.92
2016-02-12T05:14:31.810Z,18.86
2016-02-12T05:15:28.468Z,18.85
2016-02-12T05:16:41.518Z,18.91
2016-02-12T05:17:15.787Z,18.86
2016-02-12T05:18:47.524Z,18.89
2016-02-12T05:19:31.402Z,18.83
2016-02-12T05:20:31.421Z,18.88
2016-02-12T05:21:37.720Z,18.86
2016-02-12T05:22:44.208Z,18.88
2016-02-12T05:23:44.242Z,18.86
2016-02-12T05:24:57.358Z,18.94
2016-02-12T05:25:50.561Z,18.91
2016-02-12T05:27:02.893Z,18.88
2016-02-12T05:27:46.877Z,18.89
2016-02-12T05:30:23.558Z,18.94
2016-02-12T05:30:57.904Z,18.92
2016-02-12T05:31:58.532Z,18.92
2016-02-12T05:33:08.097Z,18.81
2016-02-12T05:34:08.132Z,18.92
2016-02-12T05:35:11.213Z,18.89
2016-02-12T05:36:36.934Z,18.92
2016-02-12T05:37:20.826Z,18.89
2016-02-12T05:38:40.065Z,18.88
2016-02-12T05:39:20.863Z,18.91
2016-02-12T05:40:46.575Z,18.89
2016-02-12T05:41:30.485Z,18.85
2016-02-12T05:42:49.690Z,18.89
2016-02-12T05:43:43.257Z,18.88
2016-02-12T05:45:01.840Z,18.92
2016-02-12T05:45:52.012Z,18.92
2016-02-12T05:47:04.970Z,18.82
2016-02-12T05:47:58.552Z,18.89
2016-02-12T05:49:11.509Z,18.94
2016-02-12T05:50:42.823Z,18.91
2016-02-12T05:51:26.733Z,19.01
2016-02-12T05:52:26.735Z,18.88
2016-02-12T05:53:39.488Z,18.98
2016-02-12T05:54:28.178Z,18.94
2016-02-12T05:55:46.150Z,18.92
2016-02-12T05:56:46.028Z,18.92
2016-02-12T05:57:52.548Z,18.89
2016-02-12T05:59:02.101Z,18.89
2016-02-12T06:01:17.328Z,18.78
2016-02-12T06:02:17.487Z,18.79
2016-02-12T06:03:17.395Z,18.83
2016-02-12T06:04:17.461Z,18.81
2016-02-12T06:05:17.433Z,18.85
2016-02-12T06:06:17.436Z,18.79
2016-02-12T06:07:17.500Z,18.78
2016-02-12T06:08:30.253Z,18.68
2016-02-12T06:09:30.365Z,18.67
2016-02-12T06:10:36.778Z,18.66
2016-02-12T06:11:36.952Z,18.7
2016-02-12T06:12:17.612Z,18.67
2016-02-12T06:13:17.645Z,18.67
2016-02-12T06:14:20.710Z,18.79
2016-02-12T06:15:20.760Z,18.64
2016-02-12T06:16:20.934Z,18.74
2016-02-12T06:17:20.813Z,18.67
2016-02-12T06:18:20.941Z,18.63
2016-02-12T06:19:20.881Z,18.78
2016-02-12T06:20:20.899Z,18.64
2016-02-12T06:21:20.901Z,18.66
2016-02-12T06:22:20.952Z,18.81
2016-02-12T06:23:20.985Z,18.68
2016-02-12T06:24:21.629Z,18.73
2016-02-12T06:25:27.898Z,18.83
2016-02-12T06:26:33.791Z,18.83
2016-02-12T06:27:21.075Z,18.83
2016-02-12T06:28:46.766Z,18.76
2016-02-12T06:29:21.143Z,18.78
2016-02-12T06:31:36.336Z,18.76
2016-02-12T06:32:36.339Z,18.85
2016-02-12T06:34:07.688Z,18.82
2016-02-12T06:34:46.065Z,18.74
2016-02-12T06:36:48.712Z,18.81
2016-02-12T06:37:20.479Z,18.79
2016-02-12T06:38:01.311Z,18.83
2016-02-12T06:40:03.972Z,18.91
2016-02-12T06:40:42.207Z,18.81
2016-02-12T06:41:16.570Z,18.92
2016-02-12T06:42:16.587Z,18.83
2016-02-12T06:43:29.359Z,18.81
2016-02-12T06:44:22.783Z,18.89
2016-02-12T06:45:35.880Z,18.92
2016-02-12T06:46:35.945Z,18.86
2016-02-12T06:47:48.042Z,18.91
2016-02-12T06:48:16.748Z,18.94
2016-02-12T06:49:16.781Z,18.89
2016-02-12T06:50:16.800Z,18.96
2016-02-12T06:51:23.131Z,18.81
2016-02-12T06:52:23.166Z,18.88
2016-02-12T06:53:32.715Z,18.88
2016-02-12T06:54:58.424Z,18.97
2016-02-12T06:55:39.127Z,18.91
2016-02-12T06:56:32.833Z,18.91
2016-02-12T06:57:48.024Z,18.91
2016-02-12T06:58:48.057Z,18.89
2016-02-12T07:00:00.843Z,18.85
2016-02-12T07:01:01.004Z,18.88
2016-02-12T07:01:48.161Z,18.85
2016-02-12T07:02:48.194Z,18.86
2016-02-12T07:03:48.213Z,18.83
2016-02-12T07:05:01.000Z,18.89
2016-02-12T07:05:48.234Z,18.89
2016-02-12T07:06:48.362Z,18.89
2016-02-12T07:07:48.318Z,19.01
2016-02-12T07:08:48.320Z,18.96
2016-02-12T07:10:01.076Z,19
2016-02-12T07:11:01.127Z,18.92
2016-02-12T07:12:07.602Z,18.88
2016-02-12T07:13:07.635Z,18.89
2016-02-12T07:13:48.463Z,18.85
2016-02-12T07:14:48.483Z,18.89
2016-02-12T07:15:54.797Z,18.88
2016-02-12T07:16:48.581Z,18.94
2016-02-12T07:18:07.774Z,18.88
2016-02-12T07:18:54.915Z,18.98
2016-02-12T07:20:07.920Z,19
2016-02-12T07:21:07.860Z,18.98
2016-02-12T07:22:14.348Z,18.98
2016-02-12T07:24:48.806Z,19
2016-02-12T07:25:29.621Z,18.96
2016-02-12T07:26:55.248Z,18.92
2016-02-12T07:27:39.158Z,18.94
2016-02-12T07:28:39.223Z,18.91
2016-02-12T07:29:39.195Z,18.92
2016-02-12T07:30:51.947Z,18.88
2016-02-12T07:31:51.981Z,18.97
2016-02-12T07:32:58.502Z,18.98
2016-02-12T07:33:58.506Z,19
2016-02-12T07:35:04.992Z,18.91
2016-02-12T07:36:05.025Z,18.89
2016-02-12T07:36:48.931Z,19.05
2016-02-12T07:37:48.935Z,19.04
2016-02-12T07:38:48.970Z,19.08
2016-02-12T07:39:49.081Z,18.91
2016-02-12T07:40:49.022Z,18.98
2016-02-12T07:42:01.777Z,19.05
2016-02-12T07:42:49.684Z,18.98
2016-02-12T07:43:49.109Z,19.05
2016-02-12T07:45:01.880Z,18.98
2016-02-12T07:46:14.805Z,18.97
2016-02-12T07:46:49.196Z,19.01
2016-02-12T07:47:49.214Z,19.05
2016-02-12T07:49:01.969Z,18.97
2016-02-12T07:49:49.266Z,18.94
2016-02-12T07:51:08.507Z,19.11
2016-02-12T07:52:02.055Z,19.05
2016-02-12T07:53:15.058Z,19.12
2016-02-12T07:54:08.577Z,19.11
2016-02-12T07:54:52.453Z,19.09
2016-02-12T07:56:11.692Z,19.07
2016-02-12T07:57:08.320Z,19.09
2016-02-12T07:58:14.714Z,19.09
2016-02-12T07:59:14.841Z,19.09
2016-02-12T07:59:58.719Z,19.15
2016-02-12T08:00:58.753Z,19.12
2016-02-12T08:01:58.755Z,19.16
2016-02-12T08:02:58.805Z,19.11
2016-02-12T08:03:58.826Z,19.09
2016-02-12T08:04:58.906Z,19.11
2016-02-12T08:05:58.878Z,19.11
2016-02-12T08:06:58.912Z,19.11
2016-02-12T08:08:05.196Z,19.08
2016-02-12T08:09:11.683Z,19.09
2016-02-12T08:09:59.014Z,19.09
2016-02-12T08:11:24.704Z,19.09
2016-02-12T08:12:11.785Z,19.09
2016-02-12T08:14:18.310Z,19.15
2016-02-12T08:15:33.500Z,19.15
2016-02-12T08:16:21.410Z,19.11
2016-02-12T08:17:02.225Z,19.08
2016-02-12T08:18:27.961Z,19.09
2016-02-12T08:19:02.918Z,19.07
2016-02-12T08:21:02.378Z,19.09
2016-02-12T08:22:02.974Z,19.17
2016-02-12T08:23:02.384Z,19.22
2016-02-12T08:24:01.686Z,19.22
2016-02-12T08:25:03.048Z,19.12
2016-02-12T08:26:02.520Z,19.2
2016-02-12T08:27:02.537Z,19.16
2016-02-12T08:28:03.165Z,19.12
2016-02-12T08:29:02.620Z,19.19
2016-02-12T08:30:15.368Z,19.23
2016-02-12T08:31:02.700Z,19.09
2016-02-12T08:32:02.734Z,19.22
2016-02-12T08:33:03.283Z,19.17
2016-02-12T08:34:02.724Z,19.12
2016-02-12T08:35:02.726Z,19.19
2016-02-12T08:36:09.026Z,19.22
2016-02-12T08:37:09.060Z,19.12
2016-02-12T08:38:22.031Z,19.15
2016-02-12T08:39:15.581Z,19.15
2016-02-12T08:41:19.091Z,19.15
2016-02-12T08:41:31.685Z,19.24
2016-02-12T08:42:31.797Z,19.34
2016-02-12T08:43:31.706Z,19.19
2016-02-12T08:44:31.960Z,19.19
2016-02-12T08:45:38.057Z,19.23
2016-02-12T08:46:44.544Z,19.22
2016-02-12T08:47:44.577Z,19.23
2016-02-12T08:48:57.675Z,19.2
2016-02-12T08:49:57.898Z,19.26
2016-02-12T08:51:03.215Z,19.26
2016-02-12T08:52:03.250Z,19.19
2016-02-12T08:52:35.015Z,19.26
2016-02-12T08:54:03.364Z,19.23
2016-02-12T08:54:47.302Z,19.34
2016-02-12T08:55:47.273Z,19.24
2016-02-12T08:57:00.044Z,19.3
2016-02-12T08:57:47.325Z,19.24
2016-02-12T08:59:13.020Z,19.29
2016-02-12T08:59:56.910Z,19.32
2016-02-12T09:00:56.912Z,19.3
2016-02-12T09:01:56.947Z,19.29
2016-02-12T09:03:03.248Z,19.34
2016-02-12T09:03:56.983Z,19.32
2016-02-12T09:05:16.244Z,19.27
2016-02-12T09:06:00.137Z,19.37
2016-02-12T09:07:19.358Z,19.35
2016-02-12T09:08:00.174Z,19.37
2016-02-12T09:09:31.505Z,19.37
2016-02-12T09:10:15.241Z,19.37
2016-02-12T09:11:15.275Z,19.35
2016-02-12T09:12:21.547Z,19.38
2016-02-12T09:14:24.896Z,19.3
2016-02-12T09:15:37.728Z,19.34
2016-02-12T09:16:31.215Z,19.26
2016-02-12T09:17:24.983Z,19.37
2016-02-12T09:18:25.016Z,19.35
2016-02-12T09:19:37.786Z,19.34
2016-02-12T09:20:25.070Z,19.38
2016-02-12T09:21:50.760Z,19.3
2016-02-12T09:22:34.748Z,19.32
2016-02-12T09:23:34.765Z,19.41
2016-02-12T09:24:34.895Z,19.37
2016-02-12T09:25:47.773Z,19.37
2016-02-12T09:26:35.088Z,19.38
2016-02-12T09:27:54.092Z,19.32
2016-02-12T09:28:41.173Z,19.35
2016-02-12T09:29:54.141Z,19.29
2016-02-12T09:30:47.788Z,19.32
2016-02-12T09:31:34.980Z,19.35
2016-02-12T09:32:47.721Z,19.37
2016-02-12T09:34:00.458Z,19.42
2016-02-12T09:34:35.005Z,19.37
2016-02-12T09:36:06.392Z,19.35
2016-02-12T09:36:50.299Z,19.39
2016-02-12T09:37:50.327Z,19.34
2016-02-12T09:38:50.934Z,19.38
2016-02-12T09:40:03.075Z,19.37
2016-02-12T09:41:03.108Z,19.34
2016-02-12T09:41:50.405Z,19.35
2016-02-12T09:43:03.174Z,19.35
2016-02-12T09:43:50.611Z,19.42
2016-02-12T09:45:16.210Z,19.37
2016-02-12T09:46:03.226Z,19.39
2016-02-12T09:46:50.633Z,19.32
2016-02-12T09:47:50.603Z,19.38
2016-02-12T09:49:21.936Z,19.34
2016-02-12T09:50:12.142Z,19.32
2016-02-12T09:51:05.848Z,19.39
2016-02-12T09:52:25.071Z,19.34
2016-02-12T09:53:18.668Z,19.34
2016-02-12T09:54:37.281Z,19.34
2016-02-12T09:55:25.159Z,19.39
2016-02-12T09:56:05.990Z,19.38
2016-02-12T09:58:02.976Z,19.29
2016-02-12T09:58:15.681Z,19.38
2016-02-12T09:59:15.684Z,19.37
2016-02-12T10:00:22.015Z,19.35
2016-02-12T10:01:15.753Z,19.39
2016-02-12T10:02:28.537Z,19.42
2016-02-12T10:03:22.068Z,19.44
2016-02-12T10:04:15.820Z,19.53
2016-02-12T10:05:35.044Z,19.52
2016-02-12T10:06:31.655Z,19.62
2016-02-12T10:07:37.971Z,19.53
2016-02-12T10:08:32.333Z,19.53
2016-02-12T10:09:31.741Z,19.63
2016-02-12T10:10:44.590Z,19.84
2016-02-12T10:11:31.829Z,19.81
2016-02-12T10:12:51.065Z,19.84
2016-02-12T10:13:34.916Z,19.79
2016-02-12T10:14:34.965Z,19.81
2016-02-12T10:15:41.264Z,19.77
2016-02-12T10:16:35.033Z,19.71
2016-02-12T10:17:35.036Z,19.77
2016-02-12T10:18:41.321Z,19.71
2016-02-12T10:19:41.386Z,19.77
2016-02-12T10:20:35.123Z,19.74
2016-02-12T10:21:54.359Z,19.84
2016-02-12T10:22:35.159Z,19.78
2016-02-12T10:24:00.881Z,19.82
2016-02-12T10:24:44.743Z,19.82
2016-02-12T10:25:44.778Z,19.84
2016-02-12T10:26:57.545Z,19.79
2016-02-12T10:27:51.097Z,19.84
2016-02-12T10:29:04.052Z,19.87
2016-02-12T10:29:57.430Z,19.87
2016-02-12T10:31:16.217Z,19.82
2016-02-12T10:31:57.826Z,19.75
2016-02-12T10:32:44.970Z,19.77
2016-02-12T10:34:10.756Z,19.78
2016-02-12T10:34:45.021Z,19.81
2016-02-12T10:36:10.716Z,19.82
2016-02-12T10:36:51.341Z,19.79
2016-02-12T10:37:45.125Z,19.79
2016-02-12T10:38:57.863Z,19.77
2016-02-12T10:39:51.413Z,19.79
2016-02-12T10:40:45.212Z,19.72
2016-02-12T10:41:45.512Z,19.79
2016-02-12T10:42:57.968Z,19.82
2016-02-12T10:43:52.945Z,19.81
2016-02-12T10:45:10.950Z,19.81
2016-02-12T10:46:04.528Z,19.82
2016-02-12T10:47:14.071Z,19.84
2016-02-12T10:48:01.165Z,19.81
2016-02-12T10:48:48.448Z,19.81
2016-02-12T10:50:59.579Z,19.79
2016-02-12T10:51:59.519Z,19.78
2016-02-12T10:52:59.615Z,19.78
2016-02-12T10:54:12.308Z,19.82
2016-02-12T10:55:12.326Z,19.85
2016-02-12T10:56:18.845Z,19.82
2016-02-12T10:57:02.736Z,19.79
2016-02-12T10:58:02.753Z,19.84
2016-02-12T10:59:09.041Z,19.79
2016-02-12T11:00:15.605Z,19.75
2016-02-12T11:01:03.433Z,19.72
2016-02-12T11:02:28.517Z,19.72
2016-02-12T11:03:22.097Z,19.74
2016-02-12T11:04:34.431Z,19.81
2016-02-12T11:05:34.245Z,19.84
2016-02-12T11:06:02.964Z,19.74
2016-02-12T11:07:03.091Z,19.77
2016-02-12T11:08:09.299Z,19.74
2016-02-12T11:09:03.252Z,19.7
2016-02-12T11:10:15.742Z,19.77
2016-02-12T11:11:03.117Z,19.72
2016-02-12T11:12:22.654Z,19.7
2016-02-12T11:13:15.893Z,19.71
2016-02-12T11:14:28.867Z,19.74
2016-02-12T11:15:22.462Z,19.72
2016-02-12T11:16:34.545Z,19.64
2016-02-12T11:17:34.578Z,19.7
2016-02-12T11:18:03.281Z,19.63
2016-02-12T11:19:03.331Z,19.66
2016-02-12T11:20:03.348Z,19.64
2016-02-12T11:21:04.852Z,19.64
2016-02-12T11:22:04.824Z,19.64
2016-02-12T11:23:16.174Z,19.63
2016-02-12T11:24:03.471Z,19.63
2016-02-12T11:25:22.710Z,19.67
2016-02-12T11:26:28.807Z,19.66
2016-02-12T11:27:31.934Z,19.59
2016-02-12T11:28:31.953Z,19.66
2016-02-12T11:29:38.663Z,19.7
2016-02-12T11:30:32.025Z,19.71
2016-02-12T11:31:32.028Z,19.71
2016-02-12T11:32:32.062Z,19.67
2016-02-12T11:33:57.783Z,19.71
2016-02-12T11:34:39.083Z,19.66
2016-02-12T11:35:36.070Z,19.75
2016-02-12T11:36:42.369Z,19.71
2016-02-12T11:37:36.106Z,19.67
2016-02-12T11:38:36.156Z,19.67
2016-02-12T11:39:36.177Z,19.7
2016-02-12T11:40:36.227Z,19.81
2016-02-12T11:41:42.527Z,19.75
2016-02-12T11:42:36.280Z,19.79
2016-02-12T11:43:36.282Z,19.82
2016-02-12T11:44:36.320Z,19.82
2016-02-12T11:45:42.604Z,19.89
2016-02-12T11:46:36.373Z,19.78
2016-02-12T11:47:49.235Z,19.85
2016-02-12T11:48:42.707Z,19.84
2016-02-12T11:49:37.959Z,19.81
2016-02-12T11:50:55.681Z,19.85
2016-02-12T11:51:36.513Z,19.9
2016-02-12T11:52:36.530Z,19.84
2016-02-12T11:53:36.564Z,19.84
2016-02-12T11:54:38.021Z,19.89
2016-02-12T11:55:37.242Z,19.85
2016-02-12T11:56:49.387Z,19.9
2016-02-12T11:57:49.249Z,19.93
2016-02-12T11:58:36.752Z,19.84
2016-02-12T11:59:36.741Z,19.84
2016-02-12T12:00:49.572Z,19.81
2016-02-12T12:01:36.778Z,19.84
2016-02-12T12:02:56.031Z,19.82
2016-02-12T12:03:43.720Z,19.85
2016-02-12T12:04:36.864Z,19.81
2016-02-12T12:05:56.102Z,19.85
2016-02-12T12:06:49.667Z,19.89
2016-02-12T12:07:36.967Z,19.92
2016-02-12T12:08:36.971Z,19.89
2016-02-12T12:09:43.286Z,19.87
2016-02-12T12:10:37.038Z,19.82
2016-02-12T12:11:37.166Z,19.93
2016-02-12T12:12:43.371Z,19.93
2016-02-12T12:13:37.156Z,20
2016-02-12T12:14:49.893Z,19.89
2016-02-12T12:15:49.927Z,19.96
2016-02-12T12:16:56.401Z,19.97
2016-02-12T12:17:37.247Z,19.94
2016-02-12T12:18:37.265Z,19.99
2016-02-12T12:21:19.662Z,19.82
2016-02-12T12:21:53.930Z,19.87
2016-02-12T12:22:53.979Z,19.9
2016-02-12T12:24:00.154Z,19.92
2016-02-12T12:24:54.672Z,19.93
2016-02-12T12:26:06.848Z,19.93
2016-02-12T12:26:55.584Z,19.96
2016-02-12T12:27:54.118Z,19.94
2016-02-12T12:29:13.356Z,19.85
2016-02-12T12:30:00.639Z,19.97
2016-02-12T12:31:13.409Z,19.9
2016-02-12T12:32:07.083Z,19.87
2016-02-12T12:33:19.929Z,19.87
2016-02-12T12:34:16.636Z,19.85
2016-02-12T12:35:29.576Z,19.81
2016-02-12T12:36:35.235Z,19.85
2016-02-12T12:37:35.847Z,19.84
2016-02-12T12:38:03.929Z,19.84
2016-02-12T12:39:35.259Z,19.92
2016-02-12T12:40:04.574Z,19.84
2016-02-12T12:41:35.300Z,19.82
2016-02-12T12:42:04.037Z,19.87
2016-02-12T12:43:04.056Z,19.82
2016-02-12T12:44:16.856Z,19.87
2016-02-12T12:45:10.373Z,19.82
2016-02-12T12:46:29.830Z,19.78
2016-02-12T12:47:36.583Z,19.89
2016-02-12T12:48:20.492Z,19.93
2016-02-12T12:49:39.713Z,19.82
2016-02-12T12:50:42.826Z,19.85
2016-02-12T12:51:26.719Z,19.9
2016-02-12T12:52:39.504Z,19.89
2016-02-12T12:53:33.038Z,19.87
2016-02-12T12:54:52.480Z,19.87
2016-02-12T12:55:36.371Z,19.82
2016-02-12T12:56:55.596Z,19.93
2016-02-12T12:58:07.707Z,19.84
2016-02-12T12:59:07.773Z,19.85
2016-02-12T13:00:17.340Z,19.84
2016-02-12T13:03:26.958Z,19.85
2016-02-12T13:04:01.320Z,19.84
2016-02-12T13:06:16.559Z,19.93
2016-02-12T13:07:16.562Z,19.92
2016-02-12T13:08:16.612Z,19.93
2016-02-12T13:09:16.647Z,19.84
2016-02-12T13:10:29.541Z,19.93
2016-02-12T13:11:22.966Z,19.87
2016-02-12T13:12:29.641Z,19.89
2016-02-12T13:13:29.472Z,19.84
2016-02-12T13:14:42.537Z,19.87
2016-02-12T13:15:36.009Z,19.85
2016-02-12T13:16:51.184Z,19.85
2016-02-12T13:17:35.061Z,19.85
2016-02-12T13:18:35.080Z,19.81
2016-02-12T13:19:42.021Z,19.85
2016-02-12T13:20:35.336Z,19.81
2016-02-12T13:21:54.357Z,19.84
2016-02-12T13:22:35.185Z,19.89
2016-02-12T13:23:54.425Z,19.79
2016-02-12T13:24:35.237Z,19.79
2016-02-12T13:25:54.478Z,19.78
2016-02-12T13:26:35.524Z,19.9
2016-02-12T13:28:39.359Z,19.84
2016-02-12T13:28:51.938Z,19.85
2016-02-12T13:29:51.987Z,19.85
2016-02-12T13:30:58.852Z,19.9
2016-02-12T13:32:04.807Z,19.82
2016-02-12T13:32:52.073Z,19.82
2016-02-12T13:34:17.750Z,19.89
2016-02-12T13:35:03.112Z,19.72
2016-02-12T13:36:22.271Z,19.84
2016-02-12T13:37:34.384Z,19.89